sensor_id;sensor_type;location;lat;lon;timestamp;temperature;humidity
10312;DHT22;5201;48.776;9.128;2023-06-04T00:02:12;17.60;92.00
10312;DHT22;5201;48.776;9.128;2023-06-04T00:04:37;17.50;91.90
10312;DHT22;5201;48.776;9.128;2023-06-04T00:07:03;17.50;92.10
10312;DHT22;5201;48.776;9.128;2023-06-04T00:09:29;17.50;92.40
10312;DHT22;5201;48.776;9.128;2023-06-04T00:11:55;17.50;92.60
10312;DHT22;5201;48.776;9.128;2023-06-04T00:14:21;17.30;92.80
10312;DHT22;5201;48.776;9.128;2023-06-04T00:16:46;17.20;92.90
10312;DHT22;5201;48.776;9.128;2023-06-04T00:19:12;17.20;93.00
10312;DHT22;5201;48.776;9.128;2023-06-04T00:21:37;17.20;93.10
10312;DHT22;5201;48.776;9.128;2023-06-04T00:24:03;17.20;93.00
10312;DHT22;5201;48.776;9.128;2023-06-04T00:26:29;17.20;92.90
10312;DHT22;5201;48.776;9.128;2023-06-04T00:28:54;17.10;92.60
10312;DHT22;5201;48.776;9.128;2023-06-04T00:31:20;17.20;92.70
10312;DHT22;5201;48.776;9.128;2023-06-04T00:33:47;17.00;92.80
10312;DHT22;5201;48.776;9.128;2023-06-04T00:36:13;17.90;93.50
10312;DHT22;5201;48.776;9.128;2023-06-04T00:38:38;17.00;93.10
10312;DHT22;5201;48.776;9.128;2023-06-04T00:41:04;17.10;92.80
10312;DHT22;5201;48.776;9.128;2023-06-04T00:43:30;17.00;93.00
10312;DHT22;5201;48.776;9.128;2023-06-04T00:45:57;16.90;93.10
10312;DHT22;5201;48.776;9.128;2023-06-04T00:48:23;17.10;93.40
10312;DHT22;5201;48.776;9.128;2023-06-04T00:50:49;17.20;93.50
10312;DHT22;5201;48.776;9.128;2023-06-04T00:53:15;16.90;93.10
10312;DHT22;5201;48.776;9.128;2023-06-04T00:55:41;16.90;93.20
10312;DHT22;5201;48.776;9.128;2023-06-04T00:58:08;16.90;92.70
10312;DHT22;5201;48.776;9.128;2023-06-04T01:00:35;16.70;93.00
10312;DHT22;5201;48.776;9.128;2023-06-04T01:03:04;16.70;93.40
10312;DHT22;5201;48.776;9.128;2023-06-04T01:05:37;16.70;93.60
10312;DHT22;5201;48.776;9.128;2023-06-04T01:08:04;16.70;93.80
10312;DHT22;5201;48.776;9.128;2023-06-04T01:10:34;16.60;93.90
10312;DHT22;5201;48.776;9.128;2023-06-04T01:13:00;17.00;93.90
10312;DHT22;5201;48.776;9.128;2023-06-04T01:15:25;16.50;93.70
10312;DHT22;5201;48.776;9.128;2023-06-04T01:17:54;16.50;93.70
10312;DHT22;5201;48.776;9.128;2023-06-04T01:20:43;16.60;93.60
10312;DHT22;5201;48.776;9.128;2023-06-04T01:23:33;16.60;93.40
10312;DHT22;5201;48.776;9.128;2023-06-04T01:26:03;16.50;93.70
10312;DHT22;5201;48.776;9.128;2023-06-04T01:28:34;16.50;93.30
10312;DHT22;5201;48.776;9.128;2023-06-04T01:31:01;16.90;93.70
10312;DHT22;5201;48.776;9.128;2023-06-04T01:33:28;16.30;93.50
10312;DHT22;5201;48.776;9.128;2023-06-04T01:35:53;16.40;93.50
10312;DHT22;5201;48.776;9.128;2023-06-04T01:38:19;16.40;93.30
10312;DHT22;5201;48.776;9.128;2023-06-04T01:40:45;16.30;93.40
10312;DHT22;5201;48.776;9.128;2023-06-04T01:43:11;16.30;93.50
10312;DHT22;5201;48.776;9.128;2023-06-04T01:45:37;16.30;93.50
10312;DHT22;5201;48.776;9.128;2023-06-04T01:48:04;16.60;93.50
10312;DHT22;5201;48.776;9.128;2023-06-04T01:50:31;16.30;93.30
10312;DHT22;5201;48.776;9.128;2023-06-04T01:52:56;16.30;93.20
10312;DHT22;5201;48.776;9.128;2023-06-04T01:55:22;16.20;93.30
10312;DHT22;5201;48.776;9.128;2023-06-04T01:57:51;16.50;93.40
10312;DHT22;5201;48.776;9.128;2023-06-04T02:00:16;16.20;93.60
10312;DHT22;5201;48.776;9.128;2023-06-04T02:02:44;16.10;93.70
10312;DHT22;5201;48.776;9.128;2023-06-04T02:05:16;16.20;93.80
10312;DHT22;5201;48.776;9.128;2023-06-04T02:07:43;16.10;93.70
10312;DHT22;5201;48.776;9.128;2023-06-04T02:10:11;16.10;93.30
10312;DHT22;5201;48.776;9.128;2023-06-04T02:12:40;16.00;93.80
10312;DHT22;5201;48.776;9.128;2023-06-04T02:15:07;16.00;94.00
10312;DHT22;5201;48.776;9.128;2023-06-04T02:17:32;16.00;94.20
10312;DHT22;5201;48.776;9.128;2023-06-04T02:20:02;15.90;94.20
10312;DHT22;5201;48.776;9.128;2023-06-04T02:22:29;15.90;94.20
10312;DHT22;5201;48.776;9.128;2023-06-04T02:24:55;15.80;94.20
10312;DHT22;5201;48.776;9.128;2023-06-04T02:27:21;15.80;93.90
10312;DHT22;5201;48.776;9.128;2023-06-04T02:29:46;15.80;94.10
10312;DHT22;5201;48.776;9.128;2023-06-04T02:32:12;15.80;94.10
10312;DHT22;5201;48.776;9.128;2023-06-04T02:34:37;15.80;94.20
10312;DHT22;5201;48.776;9.128;2023-06-04T02:37:03;16.10;94.30
10312;DHT22;5201;48.776;9.128;2023-06-04T02:39:29;15.70;94.20
10312;DHT22;5201;48.776;9.128;2023-06-04T02:41:54;15.60;94.10
10312;DHT22;5201;48.776;9.128;2023-06-04T02:44:20;16.10;94.30
10312;DHT22;5201;48.776;9.128;2023-06-04T02:46:46;15.70;93.90
10312;DHT22;5201;48.776;9.128;2023-06-04T02:49:12;15.70;93.50
10312;DHT22;5201;48.776;9.128;2023-06-04T02:51:45;15.80;93.40
10312;DHT22;5201;48.776;9.128;2023-06-04T02:54:10;15.40;93.40
10312;DHT22;5201;48.776;9.128;2023-06-04T02:56:37;15.50;93.60
10312;DHT22;5201;48.776;9.128;2023-06-04T02:59:03;15.50;94.30
10312;DHT22;5201;48.776;9.128;2023-06-04T03:01:29;15.50;94.00
10312;DHT22;5201;48.776;9.128;2023-06-04T03:03:55;15.50;93.60
10312;DHT22;5201;48.776;9.128;2023-06-04T03:06:22;15.50;93.40
10312;DHT22;5201;48.776;9.128;2023-06-04T03:08:49;15.50;93.30
10312;DHT22;5201;48.776;9.128;2023-06-04T03:11:15;15.50;93.10
10312;DHT22;5201;48.776;9.128;2023-06-04T03:13:41;16.00;93.20
10312;DHT22;5201;48.776;9.128;2023-06-04T03:16:07;15.50;92.80
10312;DHT22;5201;48.776;9.128;2023-06-04T03:18:36;15.30;92.50
10312;DHT22;5201;48.776;9.128;2023-06-04T03:21:02;15.70;93.30
10312;DHT22;5201;48.776;9.128;2023-06-04T03:23:28;15.20;93.60
10312;DHT22;5201;48.776;9.128;2023-06-04T03:25:53;15.20;93.70
10312;DHT22;5201;48.776;9.128;2023-06-04T03:28:19;15.20;93.60
10312;DHT22;5201;48.776;9.128;2023-06-04T03:30:45;15.30;94.00
10312;DHT22;5201;48.776;9.128;2023-06-04T03:33:11;15.30;93.60
10312;DHT22;5201;48.776;9.128;2023-06-04T03:35:36;15.40;93.10
10312;DHT22;5201;48.776;9.128;2023-06-04T03:38:02;16.10;93.10
10312;DHT22;5201;48.776;9.128;2023-06-04T03:40:27;15.40;92.90
10312;DHT22;5201;48.776;9.128;2023-06-04T03:42:53;15.40;93.00
10312;DHT22;5201;48.776;9.128;2023-06-04T03:45:18;15.40;92.50
10312;DHT22;5201;48.776;9.128;2023-06-04T03:47:45;15.50;92.10
10312;DHT22;5201;48.776;9.128;2023-06-04T03:50:11;15.60;92.50
10312;DHT22;5201;48.776;9.128;2023-06-04T03:52:36;16.10;92.60
10312;DHT22;5201;48.776;9.128;2023-06-04T03:55:02;15.50;92.50
10312;DHT22;5201;48.776;9.128;2023-06-04T03:57:29;15.50;92.40
10312;DHT22;5201;48.776;9.128;2023-06-04T03:59:54;15.60;92.40
10312;DHT22;5201;48.776;9.128;2023-06-04T04:02:20;15.50;92.50
10312;DHT22;5201;48.776;9.128;2023-06-04T04:04:46;15.60;92.10
10312;DHT22;5201;48.776;9.128;2023-06-04T04:07:11;16.00;92.50
10312;DHT22;5201;48.776;9.128;2023-06-04T04:09:37;16.30;93.10
10312;DHT22;5201;48.776;9.128;2023-06-04T04:12:04;15.90;93.30
10312;DHT22;5201;48.776;9.128;2023-06-04T04:14:29;15.80;93.30
10312;DHT22;5201;48.776;9.128;2023-06-04T04:16:55;15.80;93.50
10312;DHT22;5201;48.776;9.128;2023-06-04T04:19:20;16.00;93.70
10312;DHT22;5201;48.776;9.128;2023-06-04T04:21:46;16.30;93.40
10312;DHT22;5201;48.776;9.128;2023-06-04T04:24:25;16.60;93.10
10312;DHT22;5201;48.776;9.128;2023-06-04T04:26:52;17.00;92.10
10312;DHT22;5201;48.776;9.128;2023-06-04T04:29:23;17.20;92.10
10312;DHT22;5201;48.776;9.128;2023-06-04T04:31:53;17.20;92.00
10312;DHT22;5201;48.776;9.128;2023-06-04T04:34:22;17.10;91.90
10312;DHT22;5201;48.776;9.128;2023-06-04T04:36:49;17.50;92.00
10312;DHT22;5201;48.776;9.128;2023-06-04T04:39:24;17.70;91.40
10312;DHT22;5201;48.776;9.128;2023-06-04T04:41:51;18.10;90.40
10312;DHT22;5201;48.776;9.128;2023-06-04T04:44:17;18.20;90.10
10312;DHT22;5201;48.776;9.128;2023-06-04T04:46:42;18.30;89.50
10312;DHT22;5201;48.776;9.128;2023-06-04T04:49:08;18.20;90.20
10312;DHT22;5201;48.776;9.128;2023-06-04T04:51:34;18.00;90.00
10312;DHT22;5201;48.776;9.128;2023-06-04T04:54:00;17.80;89.60
10312;DHT22;5201;48.776;9.128;2023-06-04T04:56:26;17.80;90.00
10312;DHT22;5201;48.776;9.128;2023-06-04T04:58:52;18.00;89.60
10312;DHT22;5201;48.776;9.128;2023-06-04T05:01:18;18.00;88.80
10312;DHT22;5201;48.776;9.128;2023-06-04T05:03:44;18.10;87.60
10312;DHT22;5201;48.776;9.128;2023-06-04T05:06:10;18.10;87.30
10312;DHT22;5201;48.776;9.128;2023-06-04T05:08:35;18.00;87.90
10312;DHT22;5201;48.776;9.128;2023-06-04T05:11:01;17.80;88.30
10312;DHT22;5201;48.776;9.128;2023-06-04T05:13:27;17.70;89.20
10312;DHT22;5201;48.776;9.128;2023-06-04T05:15:52;17.60;88.70
10312;DHT22;5201;48.776;9.128;2023-06-04T05:18:19;17.50;88.60
10312;DHT22;5201;48.776;9.128;2023-06-04T05:20:58;17.40;88.80
10312;DHT22;5201;48.776;9.128;2023-06-04T05:23:26;17.30;88.30
10312;DHT22;5201;48.776;9.128;2023-06-04T05:25:52;17.30;88.80
10312;DHT22;5201;48.776;9.128;2023-06-04T05:28:18;17.30;90.00
10312;DHT22;5201;48.776;9.128;2023-06-04T05:30:43;17.30;89.50
10312;DHT22;5201;48.776;9.128;2023-06-04T05:33:09;17.30;89.60
10312;DHT22;5201;48.776;9.128;2023-06-04T05:35:45;17.30;89.60
10312;DHT22;5201;48.776;9.128;2023-06-04T05:38:11;17.30;90.10
10312;DHT22;5201;48.776;9.128;2023-06-04T05:40:42;17.30;90.10
10312;DHT22;5201;48.776;9.128;2023-06-04T05:43:08;17.30;90.40
10312;DHT22;5201;48.776;9.128;2023-06-04T05:45:33;17.20;89.80
10312;DHT22;5201;48.776;9.128;2023-06-04T05:47:59;17.30;90.20
10312;DHT22;5201;48.776;9.128;2023-06-04T05:50:25;17.40;89.20
10312;DHT22;5201;48.776;9.128;2023-06-04T05:52:51;17.50;88.90
10312;DHT22;5201;48.776;9.128;2023-06-04T05:55:16;17.70;90.20
10312;DHT22;5201;48.776;9.128;2023-06-04T05:57:42;17.40;90.20
10312;DHT22;5201;48.776;9.128;2023-06-04T06:00:08;17.60;89.50
10312;DHT22;5201;48.776;9.128;2023-06-04T06:02:36;18.20;88.30
10312;DHT22;5201;48.776;9.128;2023-06-04T06:05:04;19.10;88.00
10312;DHT22;5201;48.776;9.128;2023-06-04T06:07:32;20.10;85.20
10312;DHT22;5201;48.776;9.128;2023-06-04T06:09:57;21.10;83.80
10312;DHT22;5201;48.776;9.128;2023-06-04T06:12:23;21.90;82.20
10312;DHT22;5201;48.776;9.128;2023-06-04T06:14:48;22.60;81.00
10312;DHT22;5201;48.776;9.128;2023-06-04T06:17:14;23.30;79.00
10312;DHT22;5201;48.776;9.128;2023-06-04T06:19:40;23.80;77.40
10312;DHT22;5201;48.776;9.128;2023-06-04T06:22:05;24.20;76.00
10312;DHT22;5201;48.776;9.128;2023-06-04T06:24:31;24.50;74.50
10312;DHT22;5201;48.776;9.128;2023-06-04T06:26:56;24.90;75.30
10312;DHT22;5201;48.776;9.128;2023-06-04T06:29:22;25.20;75.30
10312;DHT22;5201;48.776;9.128;2023-06-04T06:31:47;25.50;74.60
10312;DHT22;5201;48.776;9.128;2023-06-04T06:34:13;25.90;73.60
10312;DHT22;5201;48.776;9.128;2023-06-04T06:36:39;26.00;73.30
10312;DHT22;5201;48.776;9.128;2023-06-04T06:39:04;26.20;72.50
10312;DHT22;5201;48.776;9.128;2023-06-04T06:41:30;26.50;73.50
10312;DHT22;5201;48.776;9.128;2023-06-04T06:43:59;26.90;71.30
10312;DHT22;5201;48.776;9.128;2023-06-04T06:46:24;27.20;70.40
10312;DHT22;5201;48.776;9.128;2023-06-04T06:48:50;27.50;70.30
10312;DHT22;5201;48.776;9.128;2023-06-04T06:51:15;27.80;69.40
10312;DHT22;5201;48.776;9.128;2023-06-04T06:53:41;27.60;69.50
10312;DHT22;5201;48.776;9.128;2023-06-04T06:56:07;27.00;67.00
10312;DHT22;5201;48.776;9.128;2023-06-04T06:58:33;26.20;69.20
10312;DHT22;5201;48.776;9.128;2023-06-04T07:00:59;25.20;69.80
10312;DHT22;5201;48.776;9.128;2023-06-04T07:03:25;24.40;70.00
10312;DHT22;5201;48.776;9.128;2023-06-04T07:05:50;23.60;71.40
10312;DHT22;5201;48.776;9.128;2023-06-04T07:08:16;23.20;73.20
10312;DHT22;5201;48.776;9.128;2023-06-04T07:10:41;23.80;72.20
10312;DHT22;5201;48.776;9.128;2023-06-04T07:13:07;24.80;70.90
10312;DHT22;5201;48.776;9.128;2023-06-04T07:15:32;25.60;70.60
10312;DHT22;5201;48.776;9.128;2023-06-04T07:17:58;25.50;67.50
10312;DHT22;5201;48.776;9.128;2023-06-04T07:20:24;25.40;68.90
10312;DHT22;5201;48.776;9.128;2023-06-04T07:22:49;26.30;69.20
10312;DHT22;5201;48.776;9.128;2023-06-04T07:25:15;27.20;68.00
10312;DHT22;5201;48.776;9.128;2023-06-04T07:27:41;27.50;65.00
10312;DHT22;5201;48.776;9.128;2023-06-04T07:30:09;26.20;65.10
10312;DHT22;5201;48.776;9.128;2023-06-04T07:32:35;26.20;67.50
10312;DHT22;5201;48.776;9.128;2023-06-04T07:35:02;25.30;69.20
10312;DHT22;5201;48.776;9.128;2023-06-04T07:37:28;24.60;70.20
10312;DHT22;5201;48.776;9.128;2023-06-04T07:39:53;24.20;71.10
10312;DHT22;5201;48.776;9.128;2023-06-04T07:42:19;23.70;70.80
10312;DHT22;5201;48.776;9.128;2023-06-04T07:44:44;23.40;73.00
10312;DHT22;5201;48.776;9.128;2023-06-04T07:47:10;23.20;74.70
10312;DHT22;5201;48.776;9.128;2023-06-04T07:49:35;23.20;74.00
10312;DHT22;5201;48.776;9.128;2023-06-04T07:52:01;23.90;73.90
10312;DHT22;5201;48.776;9.128;2023-06-04T07:54:27;24.50;73.80
10312;DHT22;5201;48.776;9.128;2023-06-04T07:56:52;25.10;72.60
10312;DHT22;5201;48.776;9.128;2023-06-04T07:59:22;26.00;71.40
10312;DHT22;5201;48.776;9.128;2023-06-04T08:01:49;27.00;70.60
10312;DHT22;5201;48.776;9.128;2023-06-04T08:04:14;27.80;69.80
10312;DHT22;5201;48.776;9.128;2023-06-04T08:06:40;28.30;66.50
10312;DHT22;5201;48.776;9.128;2023-06-04T08:09:07;28.80;66.70
10312;DHT22;5201;48.776;9.128;2023-06-04T08:11:35;28.90;66.90
10312;DHT22;5201;48.776;9.128;2023-06-04T08:14:01;28.90;68.00
10312;DHT22;5201;48.776;9.128;2023-06-04T08:16:26;29.30;66.80
10312;DHT22;5201;48.776;9.128;2023-06-04T08:18:52;29.50;66.10
10312;DHT22;5201;48.776;9.128;2023-06-04T08:21:26;29.90;65.40
10312;DHT22;5201;48.776;9.128;2023-06-04T08:23:51;30.10;67.10
10312;DHT22;5201;48.776;9.128;2023-06-04T08:26:17;30.10;64.20
10312;DHT22;5201;48.776;9.128;2023-06-04T08:28:47;30.00;65.40
10312;DHT22;5201;48.776;9.128;2023-06-04T08:31:12;30.20;65.10
10312;DHT22;5201;48.776;9.128;2023-06-04T08:33:38;30.30;64.90
10312;DHT22;5201;48.776;9.128;2023-06-04T08:36:04;30.40;65.30
10312;DHT22;5201;48.776;9.128;2023-06-04T08:38:30;30.70;64.60
10312;DHT22;5201;48.776;9.128;2023-06-04T08:41:01;30.80;66.00
10312;DHT22;5201;48.776;9.128;2023-06-04T08:43:29;31.00;63.90
10312;DHT22;5201;48.776;9.128;2023-06-04T08:45:58;30.80;64.00
10312;DHT22;5201;48.776;9.128;2023-06-04T08:48:25;30.50;63.10
10312;DHT22;5201;48.776;9.128;2023-06-04T08:50:53;30.40;64.10
10312;DHT22;5201;48.776;9.128;2023-06-04T08:53:19;30.40;64.40
10312;DHT22;5201;48.776;9.128;2023-06-04T08:55:46;30.10;64.00
10312;DHT22;5201;48.776;9.128;2023-06-04T08:58:15;29.70;63.90
10312;DHT22;5201;48.776;9.128;2023-06-04T09:00:41;29.50;63.00
10312;DHT22;5201;48.776;9.128;2023-06-04T09:03:07;29.50;65.50
10312;DHT22;5201;48.776;9.128;2023-06-04T09:05:33;29.60;65.00
10312;DHT22;5201;48.776;9.128;2023-06-04T09:08:01;29.50;65.70
10312;DHT22;5201;48.776;9.128;2023-06-04T09:10:29;29.30;66.30
10312;DHT22;5201;48.776;9.128;2023-06-04T09:12:57;29.20;64.60
10312;DHT22;5201;48.776;9.128;2023-06-04T09:15:25;28.90;66.20
10312;DHT22;5201;48.776;9.128;2023-06-04T09:17:51;29.00;66.70
10312;DHT22;5201;48.776;9.128;2023-06-04T09:20:23;29.20;65.30
10312;DHT22;5201;48.776;9.128;2023-06-04T09:22:49;27.90;64.80
10312;DHT22;5201;48.776;9.128;2023-06-04T09:25:23;28.90;68.10
10312;DHT22;5201;48.776;9.128;2023-06-04T09:27:50;29.10;65.00
10312;DHT22;5201;48.776;9.128;2023-06-04T09:30:16;29.00;64.80
10312;DHT22;5201;48.776;9.128;2023-06-04T09:32:42;28.50;64.60
10312;DHT22;5201;48.776;9.128;2023-06-04T09:35:18;28.40;66.60
10312;DHT22;5201;48.776;9.128;2023-06-04T09:37:54;28.60;68.00
10312;DHT22;5201;48.776;9.128;2023-06-04T09:40:21;28.40;66.00
10312;DHT22;5201;48.776;9.128;2023-06-04T09:42:48;28.40;66.90
10312;DHT22;5201;48.776;9.128;2023-06-04T09:45:32;28.50;66.40
10312;DHT22;5201;48.776;9.128;2023-06-04T09:48:00;28.70;66.50
10312;DHT22;5201;48.776;9.128;2023-06-04T09:50:27;28.70;67.30
10312;DHT22;5201;48.776;9.128;2023-06-04T09:52:54;29.00;67.10
10312;DHT22;5201;48.776;9.128;2023-06-04T09:55:19;29.10;64.20
10312;DHT22;5201;48.776;9.128;2023-06-04T09:57:47;29.20;63.50
10312;DHT22;5201;48.776;9.128;2023-06-04T10:00:17;28.80;62.60
10312;DHT22;5201;48.776;9.128;2023-06-04T10:02:48;28.70;65.10
10312;DHT22;5201;48.776;9.128;2023-06-04T10:05:15;28.80;64.10
10312;DHT22;5201;48.776;9.128;2023-06-04T10:07:45;28.80;64.30
10312;DHT22;5201;48.776;9.128;2023-06-04T10:10:16;28.60;64.00
10312;DHT22;5201;48.776;9.128;2023-06-04T10:12:43;28.90;64.70
10312;DHT22;5201;48.776;9.128;2023-06-04T10:15:12;29.20;65.10
10312;DHT22;5201;48.776;9.128;2023-06-04T10:17:38;29.20;64.80
10312;DHT22;5201;48.776;9.128;2023-06-04T10:20:06;29.00;63.40
10312;DHT22;5201;48.776;9.128;2023-06-04T10:22:34;28.30;62.90
10312;DHT22;5201;48.776;9.128;2023-06-04T10:25:00;27.70;65.70
10312;DHT22;5201;48.776;9.128;2023-06-04T10:27:25;28.10;67.30
10312;DHT22;5201;48.776;9.128;2023-06-04T10:29:52;28.70;64.20
10312;DHT22;5201;48.776;9.128;2023-06-04T10:32:18;28.40;62.60
10312;DHT22;5201;48.776;9.128;2023-06-04T10:34:46;28.40;64.80
10312;DHT22;5201;48.776;9.128;2023-06-04T10:37:24;28.80;65.30
10312;DHT22;5201;48.776;9.128;2023-06-04T10:39:54;29.10;65.10
10312;DHT22;5201;48.776;9.128;2023-06-04T10:42:22;29.20;64.90
10312;DHT22;5201;48.776;9.128;2023-06-04T10:44:52;29.20;63.40
10312;DHT22;5201;48.776;9.128;2023-06-04T10:47:27;29.00;62.90
10312;DHT22;5201;48.776;9.128;2023-06-04T10:50:07;28.40;64.50
10312;DHT22;5201;48.776;9.128;2023-06-04T10:52:33;28.10;64.20
10312;DHT22;5201;48.776;9.128;2023-06-04T10:55:07;28.30;64.60
10312;DHT22;5201;48.776;9.128;2023-06-04T10:57:33;28.30;66.30
10312;DHT22;5201;48.776;9.128;2023-06-04T11:00:00;28.50;65.40
10312;DHT22;5201;48.776;9.128;2023-06-04T11:02:26;28.40;64.40
10312;DHT22;5201;48.776;9.128;2023-06-04T11:05:02;28.40;64.10
10312;DHT22;5201;48.776;9.128;2023-06-04T11:07:28;28.00;64.80
10312;DHT22;5201;48.776;9.128;2023-06-04T11:09:55;27.80;66.00
10312;DHT22;5201;48.776;9.128;2023-06-04T11:12:21;27.90;64.00
10312;DHT22;5201;48.776;9.128;2023-06-04T11:15:05;27.90;64.90
10312;DHT22;5201;48.776;9.128;2023-06-04T11:17:31;27.90;65.90
10312;DHT22;5201;48.776;9.128;2023-06-04T11:19:57;27.80;63.80
10312;DHT22;5201;48.776;9.128;2023-06-04T11:22:23;27.60;65.10
10312;DHT22;5201;48.776;9.128;2023-06-04T11:24:49;27.50;63.80
10312;DHT22;5201;48.776;9.128;2023-06-04T11:27:17;27.40;65.70
10312;DHT22;5201;48.776;9.128;2023-06-04T11:29:43;27.50;66.00
10312;DHT22;5201;48.776;9.128;2023-06-04T11:32:08;27.60;65.70
10312;DHT22;5201;48.776;9.128;2023-06-04T11:34:34;27.80;64.90
10312;DHT22;5201;48.776;9.128;2023-06-04T11:37:09;28.00;64.20
10312;DHT22;5201;48.776;9.128;2023-06-04T11:39:35;27.60;64.10
10312;DHT22;5201;48.776;9.128;2023-06-04T11:42:06;27.40;64.50
10312;DHT22;5201;48.776;9.128;2023-06-04T11:44:33;27.20;63.80
10312;DHT22;5201;48.776;9.128;2023-06-04T11:46:59;27.00;65.30
10312;DHT22;5201;48.776;9.128;2023-06-04T11:49:24;27.00;65.20
10312;DHT22;5201;48.776;9.128;2023-06-04T11:51:52;26.90;64.30
10312;DHT22;5201;48.776;9.128;2023-06-04T11:54:19;26.60;66.30
10312;DHT22;5201;48.776;9.128;2023-06-04T11:56:48;26.60;65.60
10312;DHT22;5201;48.776;9.128;2023-06-04T11:59:14;26.70;65.50
10312;DHT22;5201;48.776;9.128;2023-06-04T12:01:42;26.70;65.70
10312;DHT22;5201;48.776;9.128;2023-06-04T12:04:12;26.50;66.00
10312;DHT22;5201;48.776;9.128;2023-06-04T12:06:38;26.40;65.00
10312;DHT22;5201;48.776;9.128;2023-06-04T12:09:04;26.30;64.90
10312;DHT22;5201;48.776;9.128;2023-06-04T12:11:34;26.20;65.90
10312;DHT22;5201;48.776;9.128;2023-06-04T12:14:04;26.20;66.80
10312;DHT22;5201;48.776;9.128;2023-06-04T12:16:30;26.00;65.80
10312;DHT22;5201;48.776;9.128;2023-06-04T12:19:10;25.90;66.90
10312;DHT22;5201;48.776;9.128;2023-06-04T12:21:37;25.70;66.60
10312;DHT22;5201;48.776;9.128;2023-06-04T12:26:34;25.60;67.40
10312;DHT22;5201;48.776;9.128;2023-06-04T12:29:13;25.50;67.20
10312;DHT22;5201;48.776;9.128;2023-06-04T12:31:40;25.50;66.20
10312;DHT22;5201;48.776;9.128;2023-06-04T12:34:06;25.40;65.60
10312;DHT22;5201;48.776;9.128;2023-06-04T12:36:32;25.40;66.30
10312;DHT22;5201;48.776;9.128;2023-06-04T12:39:03;25.30;65.80
10312;DHT22;5201;48.776;9.128;2023-06-04T12:41:31;23.80;64.10
10312;DHT22;5201;48.776;9.128;2023-06-04T12:43:56;25.10;65.50
10312;DHT22;5201;48.776;9.128;2023-06-04T12:46:23;25.10;66.00
10312;DHT22;5201;48.776;9.128;2023-06-04T12:48:50;25.00;66.30
10312;DHT22;5201;48.776;9.128;2023-06-04T12:51:16;25.00;65.30
10312;DHT22;5201;48.776;9.128;2023-06-04T12:53:42;24.90;65.50
10312;DHT22;5201;48.776;9.128;2023-06-04T12:56:08;24.90;66.10
10312;DHT22;5201;48.776;9.128;2023-06-04T12:58:34;24.80;66.40
10312;DHT22;5201;48.776;9.128;2023-06-04T13:01:00;24.80;67.30
10312;DHT22;5201;48.776;9.128;2023-06-04T13:03:26;24.90;66.00
10312;DHT22;5201;48.776;9.128;2023-06-04T13:05:52;24.90;65.80
10312;DHT22;5201;48.776;9.128;2023-06-04T13:08:19;24.90;67.70
10312;DHT22;5201;48.776;9.128;2023-06-04T13:10:50;25.00;66.60
10312;DHT22;5201;48.776;9.128;2023-06-04T13:13:16;25.10;66.10
10312;DHT22;5201;48.776;9.128;2023-06-04T13:15:42;25.00;65.70
10312;DHT22;5201;48.776;9.128;2023-06-04T13:18:09;25.10;67.10
10312;DHT22;5201;48.776;9.128;2023-06-04T13:20:36;25.10;67.60
10312;DHT22;5201;48.776;9.128;2023-06-04T13:23:01;25.00;66.40
10312;DHT22;5201;48.776;9.128;2023-06-04T13:25:27;25.10;65.60
10312;DHT22;5201;48.776;9.128;2023-06-04T13:27:54;25.10;66.00
10312;DHT22;5201;48.776;9.128;2023-06-04T13:30:20;25.10;64.90
10312;DHT22;5201;48.776;9.128;2023-06-04T13:32:46;25.20;65.60
10312;DHT22;5201;48.776;9.128;2023-06-04T13:35:12;25.30;65.30
10312;DHT22;5201;48.776;9.128;2023-06-04T13:37:37;25.30;65.80
10312;DHT22;5201;48.776;9.128;2023-06-04T13:40:03;25.30;65.50
10312;DHT22;5201;48.776;9.128;2023-06-04T13:42:29;25.20;64.20
10312;DHT22;5201;48.776;9.128;2023-06-04T13:44:55;25.20;65.50
10312;DHT22;5201;48.776;9.128;2023-06-04T13:47:20;25.10;64.20
10312;DHT22;5201;48.776;9.128;2023-06-04T13:49:47;25.10;64.60
10312;DHT22;5201;48.776;9.128;2023-06-04T13:52:13;25.20;63.50
10312;DHT22;5201;48.776;9.128;2023-06-04T13:54:38;25.20;63.40
10312;DHT22;5201;48.776;9.128;2023-06-04T13:57:04;25.20;63.90
10312;DHT22;5201;48.776;9.128;2023-06-04T13:59:30;25.20;65.50
10312;DHT22;5201;48.776;9.128;2023-06-04T14:01:56;25.20;63.30
10312;DHT22;5201;48.776;9.128;2023-06-04T14:04:22;25.10;63.80
10312;DHT22;5201;48.776;9.128;2023-06-04T14:06:48;25.10;63.40
10312;DHT22;5201;48.776;9.128;2023-06-04T14:09:14;25.10;63.20
10312;DHT22;5201;48.776;9.128;2023-06-04T14:11:39;25.10;64.00
10312;DHT22;5201;48.776;9.128;2023-06-04T14:14:06;25.10;64.50
10312;DHT22;5201;48.776;9.128;2023-06-04T14:16:31;24.90;63.90
10312;DHT22;5201;48.776;9.128;2023-06-04T14:18:57;24.80;63.80
10312;DHT22;5201;48.776;9.128;2023-06-04T14:21:23;24.80;65.10
10312;DHT22;5201;48.776;9.128;2023-06-04T14:23:48;24.90;64.20
10312;DHT22;5201;48.776;9.128;2023-06-04T14:26:16;24.80;64.70
10312;DHT22;5201;48.776;9.128;2023-06-04T14:28:43;24.90;65.20
10312;DHT22;5201;48.776;9.128;2023-06-04T14:31:09;24.80;64.10
10312;DHT22;5201;48.776;9.128;2023-06-04T14:33:35;24.80;63.60
10312;DHT22;5201;48.776;9.128;2023-06-04T14:36:05;24.80;64.60
10312;DHT22;5201;48.776;9.128;2023-06-04T14:38:31;24.80;64.50
10312;DHT22;5201;48.776;9.128;2023-06-04T14:40:56;24.80;64.00
10312;DHT22;5201;48.776;9.128;2023-06-04T14:43:22;24.90;62.50
10312;DHT22;5201;48.776;9.128;2023-06-04T14:45:48;25.00;64.20
10312;DHT22;5201;48.776;9.128;2023-06-04T14:48:14;25.00;65.50
10312;DHT22;5201;48.776;9.128;2023-06-04T14:50:39;25.00;65.40
10312;DHT22;5201;48.776;9.128;2023-06-04T14:53:05;25.00;64.00
10312;DHT22;5201;48.776;9.128;2023-06-04T14:55:34;25.00;64.10
10312;DHT22;5201;48.776;9.128;2023-06-04T14:58:00;25.00;64.70
10312;DHT22;5201;48.776;9.128;2023-06-04T15:00:26;25.00;63.10
10312;DHT22;5201;48.776;9.128;2023-06-04T15:02:51;25.00;63.80
10312;DHT22;5201;48.776;9.128;2023-06-04T15:05:17;24.90;62.90
10312;DHT22;5201;48.776;9.128;2023-06-04T15:07:42;24.80;64.40
10312;DHT22;5201;48.776;9.128;2023-06-04T15:10:08;24.80;64.00
10312;DHT22;5201;48.776;9.128;2023-06-04T15:12:35;24.80;63.70
10312;DHT22;5201;48.776;9.128;2023-06-04T15:15:07;24.70;63.20
10312;DHT22;5201;48.776;9.128;2023-06-04T15:17:34;24.70;63.60
10312;DHT22;5201;48.776;9.128;2023-06-04T15:20:00;24.70;63.30
10312;DHT22;5201;48.776;9.128;2023-06-04T15:22:26;24.70;62.80
10312;DHT22;5201;48.776;9.128;2023-06-04T15:24:53;24.70;63.50
10312;DHT22;5201;48.776;9.128;2023-06-04T15:27:18;24.60;64.30
10312;DHT22;5201;48.776;9.128;2023-06-04T15:29:44;24.50;63.30
10312;DHT22;5201;48.776;9.128;2023-06-04T15:32:10;24.50;63.80
10312;DHT22;5201;48.776;9.128;2023-06-04T15:34:36;24.40;64.10
10312;DHT22;5201;48.776;9.128;2023-06-04T15:37:02;24.50;62.60
10312;DHT22;5201;48.776;9.128;2023-06-04T15:39:27;24.50;63.50
10312;DHT22;5201;48.776;9.128;2023-06-04T15:41:53;24.80;64.10
10312;DHT22;5201;48.776;9.128;2023-06-04T15:44:18;24.50;63.10
10312;DHT22;5201;48.776;9.128;2023-06-04T15:46:44;24.40;61.80